sensor_id;sensor_type;location;lat;lon;timestamp;temperature;humidity
56162;DHT22;42045;52.986;6.014;2023-06-14T00:01:48;15.80;92.90
56162;DHT22;42045;52.986;6.014;2023-06-14T00:04:14;15.80;93.00
56162;DHT22;42045;52.986;6.014;2023-06-14T00:06:42;15.80;93.00
56162;DHT22;42045;52.986;6.014;2023-06-14T00:09:11;15.80;93.00
56162;DHT22;42045;52.986;6.014;2023-06-14T00:11:39;15.80;93.00
56162;DHT22;42045;52.986;6.014;2023-06-14T00:14:05;15.80;93.10
56162;DHT22;42045;52.986;6.014;2023-06-14T00:16:31;15.80;93.10
56162;DHT22;42045;52.986;6.014;2023-06-14T00:18:58;15.70;93.20
56162;DHT22;42045;52.986;6.014;2023-06-14T00:21:23;15.70;93.20
56162;DHT22;42045;52.986;6.014;2023-06-14T00:23:49;15.70;93.20
56162;DHT22;42045;52.986;6.014;2023-06-14T00:26:15;15.60;93.20
56162;DHT22;42045;52.986;6.014;2023-06-14T00:28:41;15.60;93.70
56162;DHT22;42045;52.986;6.014;2023-06-14T00:31:06;15.60;93.30
56162;DHT22;42045;52.986;6.014;2023-06-14T00:33:32;15.60;93.50
56162;DHT22;42045;52.986;6.014;2023-06-14T00:35:57;15.50;93.50
56162;DHT22;42045;52.986;6.014;2023-06-14T00:38:23;15.50;93.60
56162;DHT22;42045;52.986;6.014;2023-06-14T00:40:49;15.50;93.80
56162;DHT22;42045;52.986;6.014;2023-06-14T00:43:14;15.40;93.70
56162;DHT22;42045;52.986;6.014;2023-06-14T00:45:40;15.40;93.70
56162;DHT22;42045;52.986;6.014;2023-06-14T00:48:06;15.40;94.00
56162;DHT22;42045;52.986;6.014;2023-06-14T00:50:33;15.30;94.10
56162;DHT22;42045;52.986;6.014;2023-06-14T00:53:02;15.20;94.20
56162;DHT22;42045;52.986;6.014;2023-06-14T00:55:28;15.20;94.60
56162;DHT22;42045;52.986;6.014;2023-06-14T00:57:55;15.10;94.50
56162;DHT22;42045;52.986;6.014;2023-06-14T01:00:21;15.10;94.70
56162;DHT22;42045;52.986;6.014;2023-06-14T01:02:47;15.00;94.80
56162;DHT22;42045;52.986;6.014;2023-06-14T01:05:13;14.90;95.00
56162;DHT22;42045;52.986;6.014;2023-06-14T01:10:20;14.80;95.40
56162;DHT22;42045;52.986;6.014;2023-06-14T01:15:30;14.70;95.40
56162;DHT22;42045;52.986;6.014;2023-06-14T01:17:56;14.70;95.80
56162;DHT22;42045;52.986;6.014;2023-06-14T01:20:29;14.60;95.60
56162;DHT22;42045;52.986;6.014;2023-06-14T01:22:56;14.60;96.10
56162;DHT22;42045;52.986;6.014;2023-06-14T01:25:22;14.60;96.30
56162;DHT22;42045;52.986;6.014;2023-06-14T01:27:50;14.60;96.30
56162;DHT22;42045;52.986;6.014;2023-06-14T01:30:17;14.60;96.20
56162;DHT22;42045;52.986;6.014;2023-06-14T01:32:44;14.60;96.30
56162;DHT22;42045;52.986;6.014;2023-06-14T01:35:10;14.60;96.40
56162;DHT22;42045;52.986;6.014;2023-06-14T01:37:36;14.60;96.50
56162;DHT22;42045;52.986;6.014;2023-06-14T01:40:04;14.50;96.70
56162;DHT22;42045;52.986;6.014;2023-06-14T01:42:34;14.50;96.80
56162;DHT22;42045;52.986;6.014;2023-06-14T01:45:02;14.50;97.00
56162;DHT22;42045;52.986;6.014;2023-06-14T01:47:29;14.50;97.10
56162;DHT22;42045;52.986;6.014;2023-06-14T01:49:55;14.50;97.00
56162;DHT22;42045;52.986;6.014;2023-06-14T01:52:21;14.50;97.10
56162;DHT22;42045;52.986;6.014;2023-06-14T01:54:47;14.50;97.90
56162;DHT22;42045;52.986;6.014;2023-06-14T01:57:15;14.50;97.50
56162;DHT22;42045;52.986;6.014;2023-06-14T01:59:41;14.50;97.80
56162;DHT22;42045;52.986;6.014;2023-06-14T02:02:06;14.40;98.00
56162;DHT22;42045;52.986;6.014;2023-06-14T02:04:32;14.40;98.00
56162;DHT22;42045;52.986;6.014;2023-06-14T02:06:58;14.40;98.20
56162;DHT22;42045;52.986;6.014;2023-06-14T02:09:23;14.40;98.30
56162;DHT22;42045;52.986;6.014;2023-06-14T02:11:49;14.30;98.30
56162;DHT22;42045;52.986;6.014;2023-06-14T02:14:15;14.30;98.90
56162;DHT22;42045;52.986;6.014;2023-06-14T02:16:43;14.30;98.70
56162;DHT22;42045;52.986;6.014;2023-06-14T02:19:15;14.30;98.70
56162;DHT22;42045;52.986;6.014;2023-06-14T02:21:42;14.20;99.20
56162;DHT22;42045;52.986;6.014;2023-06-14T02:24:08;14.20;99.30
56162;DHT22;42045;52.986;6.014;2023-06-14T02:26:33;14.20;99.40
56162;DHT22;42045;52.986;6.014;2023-06-14T02:28:59;14.20;99.90
56162;DHT22;42045;52.986;6.014;2023-06-14T02:31:25;14.20;99.80
56162;DHT22;42045;52.986;6.014;2023-06-14T02:33:51;14.20;99.90
56162;DHT22;42045;52.986;6.014;2023-06-14T02:36:16;14.10;99.90
56162;DHT22;42045;52.986;6.014;2023-06-14T02:38:42;14.10;99.90
56162;DHT22;42045;52.986;6.014;2023-06-14T02:41:08;14.10;99.90
56162;DHT22;42045;52.986;6.014;2023-06-14T02:43:33;14.00;99.90
56162;DHT22;42045;52.986;6.014;2023-06-14T02:45:59;14.00;99.90
56162;DHT22;42045;52.986;6.014;2023-06-14T02:48:25;14.00;99.90
56162;DHT22;42045;52.986;6.014;2023-06-14T02:50:50;14.00;99.90
56162;DHT22;42045;52.986;6.014;2023-06-14T02:53:16;14.00;99.90
56162;DHT22;42045;52.986;6.014;2023-06-14T02:55:42;13.90;99.90
56162;DHT22;42045;52.986;6.014;2023-06-14T02:58:08;13.90;99.90
56162;DHT22;42045;52.986;6.014;2023-06-14T03:00:34;13.90;99.90
56162;DHT22;42045;52.986;6.014;2023-06-14T03:03:00;13.90;99.90
56162;DHT22;42045;52.986;6.014;2023-06-14T03:05:27;13.90;99.90
56162;DHT22;42045;52.986;6.014;2023-06-14T03:07:53;13.80;99.90
56162;DHT22;42045;52.986;6.014;2023-06-14T03:10:20;13.80;99.90
56162;DHT22;42045;52.986;6.014;2023-06-14T03:12:47;13.80;99.90
56162;DHT22;42045;52.986;6.014;2023-06-14T03:15:13;13.80;99.90
56162;DHT22;42045;52.986;6.014;2023-06-14T03:17:39;13.80;99.90
56162;DHT22;42045;52.986;6.014;2023-06-14T03:20:05;13.80;99.90
56162;DHT22;42045;52.986;6.014;2023-06-14T03:22:31;13.80;99.90
56162;DHT22;42045;52.986;6.014;2023-06-14T03:24:59;13.80;99.90
56162;DHT22;42045;52.986;6.014;2023-06-14T03:27:25;13.80;99.90
56162;DHT22;42045;52.986;6.014;2023-06-14T03:29:54;13.80;99.90
56162;DHT22;42045;52.986;6.014;2023-06-14T03:32:19;13.80;99.90
56162;DHT22;42045;52.986;6.014;2023-06-14T03:34:45;13.80;99.90
56162;DHT22;42045;52.986;6.014;2023-06-14T03:37:11;13.80;99.90
56162;DHT22;42045;52.986;6.014;2023-06-14T03:39:38;13.90;99.90
56162;DHT22;42045;52.986;6.014;2023-06-14T03:42:12;13.90;99.90
56162;DHT22;42045;52.986;6.014;2023-06-14T03:44:38;14.10;99.90
56162;DHT22;42045;52.986;6.014;2023-06-14T03:47:04;14.50;99.90
56162;DHT22;42045;52.986;6.014;2023-06-14T03:49:29;15.00;99.90
56162;DHT22;42045;52.986;6.014;2023-06-14T03:51:56;15.80;99.90
56162;DHT22;42045;52.986;6.014;2023-06-14T03:54:21;16.50;99.90
56162;DHT22;42045;52.986;6.014;2023-06-14T03:56:47;17.20;99.90
56162;DHT22;42045;52.986;6.014;2023-06-14T03:59:13;17.80;99.90
56162;DHT22;42045;52.986;6.014;2023-06-14T04:01:39;18.30;99.10
56162;DHT22;42045;52.986;6.014;2023-06-14T04:04:11;19.00;98.10
56162;DHT22;42045;52.986;6.014;2023-06-14T04:06:37;19.40;96.60
56162;DHT22;42045;52.986;6.014;2023-06-14T04:09:03;20.00;96.30
56162;DHT22;42045;52.986;6.014;2023-06-14T04:11:30;20.30;95.30
56162;DHT22;42045;52.986;6.014;2023-06-14T04:13:56;20.80;94.50
56162;DHT22;42045;52.986;6.014;2023-06-14T04:16:22;21.20;94.10
56162;DHT22;42045;52.986;6.014;2023-06-14T04:18:48;21.40;93.70
56162;DHT22;42045;52.986;6.014;2023-06-14T04:21:16;21.80;93.10
56162;DHT22;42045;52.986;6.014;2023-06-14T04:23:42;22.00;92.50
56162;DHT22;42045;52.986;6.014;2023-06-14T04:26:09;22.40;92.00
56162;DHT22;42045;52.986;6.014;2023-06-14T04:28:36;22.70;91.80
56162;DHT22;42045;52.986;6.014;2023-06-14T04:31:06;23.20;91.50
56162;DHT22;42045;52.986;6.014;2023-06-14T04:33:35;23.60;90.90
56162;DHT22;42045;52.986;6.014;2023-06-14T04:36:09;23.90;90.20
56162;DHT22;42045;52.986;6.014;2023-06-14T04:38:37;24.10;90.00
56162;DHT22;42045;52.986;6.014;2023-06-14T04:41:03;24.50;89.10
56162;DHT22;42045;52.986;6.014;2023-06-14T04:43:28;24.50;87.60
56162;DHT22;42045;52.986;6.014;2023-06-14T04:45:54;24.80;87.80
56162;DHT22;42045;52.986;6.014;2023-06-14T04:48:22;25.10;87.20
56162;DHT22;42045;52.986;6.014;2023-06-14T04:50:48;25.10;86.30
56162;DHT22;42045;52.986;6.014;2023-06-14T04:53:13;25.30;86.20
56162;DHT22;42045;52.986;6.014;2023-06-14T04:55:39;25.50;85.00
56162;DHT22;42045;52.986;6.014;2023-06-14T04:58:05;25.60;85.00
56162;DHT22;42045;52.986;6.014;2023-06-14T05:00:31;25.60;84.20
56162;DHT22;42045;52.986;6.014;2023-06-14T05:02:57;25.60;83.40
56162;DHT22;42045;52.986;6.014;2023-06-14T05:05:23;25.60;83.70
56162;DHT22;42045;52.986;6.014;2023-06-14T05:07:49;25.90;83.60
56162;DHT22;42045;52.986;6.014;2023-06-14T05:10:15;26.20;82.90
56162;DHT22;42045;52.986;6.014;2023-06-14T05:12:41;26.40;82.70
56162;DHT22;42045;52.986;6.014;2023-06-14T05:15:09;27.00;80.90
56162;DHT22;42045;52.986;6.014;2023-06-14T05:17:36;26.90;80.30
56162;DHT22;42045;52.986;6.014;2023-06-14T05:20:02;26.90;79.80
56162;DHT22;42045;52.986;6.014;2023-06-14T05:22:27;27.30;80.10
56162;DHT22;42045;52.986;6.014;2023-06-14T05:24:53;27.50;79.50
56162;DHT22;42045;52.986;6.014;2023-06-14T05:27:19;27.50;79.40
56162;DHT22;42045;52.986;6.014;2023-06-14T05:29:44;27.90;79.00
56162;DHT22;42045;52.986;6.014;2023-06-14T05:32:10;28.30;78.50
56162;DHT22;42045;52.986;6.014;2023-06-14T05:34:36;28.50;77.20
56162;DHT22;42045;52.986;6.014;2023-06-14T05:37:01;28.70;77.20
56162;DHT22;42045;52.986;6.014;2023-06-14T05:39:29;28.50;77.00
56162;DHT22;42045;52.986;6.014;2023-06-14T05:41:55;29.00;76.30
56162;DHT22;42045;52.986;6.014;2023-06-14T05:44:21;28.90;76.10
56162;DHT22;42045;52.986;6.014;2023-06-14T05:46:46;29.00;76.10
56162;DHT22;42045;52.986;6.014;2023-06-14T05:49:12;28.70;75.60
56162;DHT22;42045;52.986;6.014;2023-06-14T05:51:38;28.90;75.80
56162;DHT22;42045;52.986;6.014;2023-06-14T05:54:03;29.00;75.20
56162;DHT22;42045;52.986;6.014;2023-06-14T05:56:29;29.20;75.00
56162;DHT22;42045;52.986;6.014;2023-06-14T05:58:55;29.30;74.60
56162;DHT22;42045;52.986;6.014;2023-06-14T06:01:20;29.20;74.30
56162;DHT22;42045;52.986;6.014;2023-06-14T06:03:46;29.10;74.60
56162;DHT22;42045;52.986;6.014;2023-06-14T06:06:13;29.70;74.40
56162;DHT22;42045;52.986;6.014;2023-06-14T06:08:39;29.90;72.60
56162;DHT22;42045;52.986;6.014;2023-06-14T06:11:06;30.10;73.20
56162;DHT22;42045;52.986;6.014;2023-06-14T06:13:31;30.10;72.70
56162;DHT22;42045;52.986;6.014;2023-06-14T06:15:58;30.70;73.90
56162;DHT22;42045;52.986;6.014;2023-06-14T06:18:23;31.50;72.60
56162;DHT22;42045;52.986;6.014;2023-06-14T06:20:49;31.20;70.50
56162;DHT22;42045;52.986;6.014;2023-06-14T06:23:15;31.10;70.80
56162;DHT22;42045;52.986;6.014;2023-06-14T06:25:42;31.50;71.30
56162;DHT22;42045;52.986;6.014;2023-06-14T06:28:07;32.10;71.00
56162;DHT22;42045;52.986;6.014;2023-06-14T06:30:33;32.20;69.80
56162;DHT22;42045;52.986;6.014;2023-06-14T06:32:59;32.00;69.00
56162;DHT22;42045;52.986;6.014;2023-06-14T06:35:25;32.20;69.20
56162;DHT22;42045;52.986;6.014;2023-06-14T06:37:50;32.10;68.80
56162;DHT22;42045;52.986;6.014;2023-06-14T06:40:16;32.10;69.20
56162;DHT22;42045;52.986;6.014;2023-06-14T06:42:42;32.50;68.20
56162;DHT22;42045;52.986;6.014;2023-06-14T06:45:08;31.90;68.20
56162;DHT22;42045;52.986;6.014;2023-06-14T06:47:33;31.70;67.90
56162;DHT22;42045;52.986;6.014;2023-06-14T06:49:59;31.80;69.20
56162;DHT22;42045;52.986;6.014;2023-06-14T06:52:25;32.20;69.30
56162;DHT22;42045;52.986;6.014;2023-06-14T06:54:50;32.40;68.90
56162;DHT22;42045;52.986;6.014;2023-06-14T06:57:21;32.50;67.90
56162;DHT22;42045;52.986;6.014;2023-06-14T06:59:50;32.50;67.90
56162;DHT22;42045;52.986;6.014;2023-06-14T07:02:16;32.50;68.00
56162;DHT22;42045;52.986;6.014;2023-06-14T07:04:42;32.40;67.70
56162;DHT22;42045;52.986;6.014;2023-06-14T07:07:08;32.70;68.00
56162;DHT22;42045;52.986;6.014;2023-06-14T07:09:35;32.00;67.30
56162;DHT22;42045;52.986;6.014;2023-06-14T07:12:01;32.20;67.00
56162;DHT22;42045;52.986;6.014;2023-06-14T07:14:26;31.70;67.30
56162;DHT22;42045;52.986;6.014;2023-06-14T07:16:52;31.60;67.10
56162;DHT22;42045;52.986;6.014;2023-06-14T07:19:18;31.70;67.60
56162;DHT22;42045;52.986;6.014;2023-06-14T07:21:43;31.70;67.80
56162;DHT22;42045;52.986;6.014;2023-06-14T07:24:09;31.10;67.90
56162;DHT22;42045;52.986;6.014;2023-06-14T07:26:35;30.90;68.70
56162;DHT22;42045;52.986;6.014;2023-06-14T07:29:01;30.10;68.40
56162;DHT22;42045;52.986;6.014;2023-06-14T07:31:27;28.80;69.30
56162;DHT22;42045;52.986;6.014;2023-06-14T07:33:52;28.10;70.00
56162;DHT22;42045;52.986;6.014;2023-06-14T07:36:18;27.50;71.00
56162;DHT22;42045;52.986;6.014;2023-06-14T07:38:44;27.00;71.70
56162;DHT22;42045;52.986;6.014;2023-06-14T07:41:10;26.80;72.20
56162;DHT22;42045;52.986;6.014;2023-06-14T07:43:36;26.70;72.60
56162;DHT22;42045;52.986;6.014;2023-06-14T07:46:01;26.40;72.70
56162;DHT22;42045;52.986;6.014;2023-06-14T07:48:28;26.30;72.20
56162;DHT22;42045;52.986;6.014;2023-06-14T07:50:53;26.20;73.30
56162;DHT22;42045;52.986;6.014;2023-06-14T07:53:19;26.20;73.60
56162;DHT22;42045;52.986;6.014;2023-06-14T07:55:45;26.20;74.20
56162;DHT22;42045;52.986;6.014;2023-06-14T07:58:12;26.30;73.50
56162;DHT22;42045;52.986;6.014;2023-06-14T08:00:38;26.20;73.90
56162;DHT22;42045;52.986;6.014;2023-06-14T08:03:04;26.20;75.00
56162;DHT22;42045;52.986;6.014;2023-06-14T08:05:29;26.30;75.20
56162;DHT22;42045;52.986;6.014;2023-06-14T08:07:55;26.20;73.80
56162;DHT22;42045;52.986;6.014;2023-06-14T08:10:22;26.00;74.30
56162;DHT22;42045;52.986;6.014;2023-06-14T08:12:48;25.50;75.10
56162;DHT22;42045;52.986;6.014;2023-06-14T08:15:16;25.30;74.70
56162;DHT22;42045;52.986;6.014;2023-06-14T08:17:45;25.10;75.50
56162;DHT22;42045;52.986;6.014;2023-06-14T08:20:12;24.90;76.70
56162;DHT22;42045;52.986;6.014;2023-06-14T08:22:37;24.90;75.90
56162;DHT22;42045;52.986;6.014;2023-06-14T08:25:05;24.90;75.80
56162;DHT22;42045;52.986;6.014;2023-06-14T08:27:31;25.00;76.50
56162;DHT22;42045;52.986;6.014;2023-06-14T08:29:57;25.10;77.10
56162;DHT22;42045;52.986;6.014;2023-06-14T08:32:23;25.10;75.70
56162;DHT22;42045;52.986;6.014;2023-06-14T08:34:49;25.00;76.10
56162;DHT22;42045;52.986;6.014;2023-06-14T08:37:14;25.00;75.20
56162;DHT22;42045;52.986;6.014;2023-06-14T08:39:41;24.80;75.00
56162;DHT22;42045;52.986;6.014;2023-06-14T08:42:07;24.70;75.90
56162;DHT22;42045;52.986;6.014;2023-06-14T08:44:34;24.80;76.40
56162;DHT22;42045;52.986;6.014;2023-06-14T08:47:00;24.90;77.30
56162;DHT22;42045;52.986;6.014;2023-06-14T08:49:26;24.80;75.50
56162;DHT22;42045;52.986;6.014;2023-06-14T08:52:00;24.70;75.40
56162;DHT22;42045;52.986;6.014;2023-06-14T08:54:27;24.70;76.50
56162;DHT22;42045;52.986;6.014;2023-06-14T08:56:56;24.60;76.40
56162;DHT22;42045;52.986;6.014;2023-06-14T08:59:28;24.80;77.70
56162;DHT22;42045;52.986;6.014;2023-06-14T09:01:56;24.80;76.60
56162;DHT22;42045;52.986;6.014;2023-06-14T09:04:25;24.80;75.70
56162;DHT22;42045;52.986;6.014;2023-06-14T09:06:51;24.70;75.60
56162;DHT22;42045;52.986;6.014;2023-06-14T09:09:22;24.60;75.40
56162;DHT22;42045;52.986;6.014;2023-06-14T09:11:50;24.60;76.30
56162;DHT22;42045;52.986;6.014;2023-06-14T09:14:16;24.70;76.40
56162;DHT22;42045;52.986;6.014;2023-06-14T09:16:41;24.80;75.60
56162;DHT22;42045;52.986;6.014;2023-06-14T09:19:07;24.70;75.90
56162;DHT22;42045;52.986;6.014;2023-06-14T09:21:37;24.70;75.30
56162;DHT22;42045;52.986;6.014;2023-06-14T09:24:02;24.60;75.50
56162;DHT22;42045;52.986;6.014;2023-06-14T09:26:31;24.60;75.10
56162;DHT22;42045;52.986;6.014;2023-06-14T09:28:56;24.40;76.00
56162;DHT22;42045;52.986;6.014;2023-06-14T09:31:22;24.40;75.40
56162;DHT22;42045;52.986;6.014;2023-06-14T09:33:49;24.40;75.30
56162;DHT22;42045;52.986;6.014;2023-06-14T09:36:23;24.40;75.80
56162;DHT22;42045;52.986;6.014;2023-06-14T09:38:57;24.40;75.00
56162;DHT22;42045;52.986;6.014;2023-06-14T09:41:39;24.50;75.50
56162;DHT22;42045;52.986;6.014;2023-06-14T09:44:06;24.50;74.90
56162;DHT22;42045;52.986;6.014;2023-06-14T09:46:33;24.50;73.60
56162;DHT22;42045;52.986;6.014;2023-06-14T09:48:59;24.30;74.50
56162;DHT22;42045;52.986;6.014;2023-06-14T09:51:27;24.30;74.50
56162;DHT22;42045;52.986;6.014;2023-06-14T09:53:57;24.20;75.10
56162;DHT22;42045;52.986;6.014;2023-06-14T09:56:37;24.20;74.90
56162;DHT22;42045;52.986;6.014;2023-06-14T09:59:05;24.30;75.10
56162;DHT22;42045;52.986;6.014;2023-06-14T10:01:35;24.50;76.00
56162;DHT22;42045;52.986;6.014;2023-06-14T10:04:07;24.50;76.00
56162;DHT22;42045;52.986;6.014;2023-06-14T10:06:36;24.60;76.60
56162;DHT22;42045;52.986;6.014;2023-06-14T10:09:04;24.70;77.10
56162;DHT22;42045;52.986;6.014;2023-06-14T10:11:32;24.60;73.50
56162;DHT22;42045;52.986;6.014;2023-06-14T10:13:59;24.40;74.50
56162;DHT22;42045;52.986;6.014;2023-06-14T10:16:34;24.40;75.10
56162;DHT22;42045;52.986;6.014;2023-06-14T10:24:43;24.50;76.00
56162;DHT22;42045;52.986;6.014;2023-06-14T10:27:10;24.60;76.40
56162;DHT22;42045;52.986;6.014;2023-06-14T10:32:27;24.80;75.40
56162;DHT22;42045;52.986;6.014;2023-06-14T10:34:57;24.80;74.60
56162;DHT22;42045;52.986;6.014;2023-06-14T10:37:23;24.60;73.70
56162;DHT22;42045;52.986;6.014;2023-06-14T10:39:50;24.70;74.40
56162;DHT22;42045;52.986;6.014;2023-06-14T10:42:16;24.60;74.80
56162;DHT22;42045;52.986;6.014;2023-06-14T10:44:46;24.60;77.00
56162;DHT22;42045;52.986;6.014;2023-06-14T10:49:51;24.60;74.40
56162;DHT22;42045;52.986;6.014;2023-06-14T10:52:22;24.60;74.50
56162;DHT22;42045;52.986;6.014;2023-06-14T10:55:19;24.70;74.50
56162;DHT22;42045;52.986;6.014;2023-06-14T10:57:49;24.90;74.80
56162;DHT22;42045;52.986;6.014;2023-06-14T11:00:22;24.90;75.60
56162;DHT22;42045;52.986;6.014;2023-06-14T11:11:11;24.90;75.00
56162;DHT22;42045;52.986;6.014;2023-06-14T11:13:43;24.90;74.20
56162;DHT22;42045;52.986;6.014;2023-06-14T11:16:18;24.90;75.40
56162;DHT22;42045;52.986;6.014;2023-06-14T11:18:44;24.90;75.30
56162;DHT22;42045;52.986;6.014;2023-06-14T11:21:11;24.80;75.50
56162;DHT22;42045;52.986;6.014;2023-06-14T11:23:36;24.90;75.30
56162;DHT22;42045;52.986;6.014;2023-06-14T11:26:03;24.80;74.90
56162;DHT22;42045;52.986;6.014;2023-06-14T11:28:37;24.90;73.90
56162;DHT22;42045;52.986;6.014;2023-06-14T11:31:04;25.00;75.10
56162;DHT22;42045;52.986;6.014;2023-06-14T11:33:30;25.00;74.30
56162;DHT22;42045;52.986;6.014;2023-06-14T11:35:55;24.90;75.10
56162;DHT22;42045;52.986;6.014;2023-06-14T11:38:21;24.80;74.60
56162;DHT22;42045;52.986;6.014;2023-06-14T11:40:47;24.70;75.30
56162;DHT22;42045;52.986;6.014;2023-06-14T11:43:12;24.70;74.70
56162;DHT22;42045;52.986;6.014;2023-06-14T11:45:39;24.70;75.50
56162;DHT22;42045;52.986;6.014;2023-06-14T11:48:06;24.80;76.50
56162;DHT22;42045;52.986;6.014;2023-06-14T11:50:32;24.90;76.20
56162;DHT22;42045;52.986;6.014;2023-06-14T11:53:01;25.10;76.70
56162;DHT22;42045;52.986;6.014;2023-06-14T11:55:37;25.10;74.50
56162;DHT22;42045;52.986;6.014;2023-06-14T11:58:03;25.10;76.00
56162;DHT22;42045;52.986;6.014;2023-06-14T12:00:30;25.10;74.60
56162;DHT22;42045;52.986;6.014;2023-06-14T12:02:56;25.00;74.10
56162;DHT22;42045;52.986;6.014;2023-06-14T12:05:23;24.90;74.10
56162;DHT22;42045;52.986;6.014;2023-06-14T12:07:49;24.80;75.70
56162;DHT22;42045;52.986;6.014;2023-06-14T12:10:16;24.90;75.70
56162;DHT22;42045;52.986;6.014;2023-06-14T12:12:42;25.00;74.10
56162;DHT22;42045;52.986;6.014;2023-06-14T12:15:09;24.90;74.20
56162;DHT22;42045;52.986;6.014;2023-06-14T12:17:37;25.00;74.50
56162;DHT22;42045;52.986;6.014;2023-06-14T12:20:11;25.10;73.20
56162;DHT22;42045;52.986;6.014;2023-06-14T12:22:57;25.00;73.30
56162;DHT22;42045;52.986;6.014;2023-06-14T12:27:57;25.20;73.40
56162;DHT22;42045;52.986;6.014;2023-06-14T12:30:26;25.20;72.30
56162;DHT22;42045;52.986;6.014;2023-06-14T12:32:52;25.10;72.90
56162;DHT22;42045;52.986;6.014;2023-06-14T12:35:18;25.10;74.10
56162;DHT22;42045;52.986;6.014;2023-06-14T12:37:45;25.10;73.30
56162;DHT22;42045;52.986;6.014;2023-06-14T12:40:11;25.00;73.40
56162;DHT22;42045;52.986;6.014;2023-06-14T12:42:37;24.90;73.10
56162;DHT22;42045;52.986;6.014;2023-06-14T12:45:03;24.80;73.60
56162;DHT22;42045;52.986;6.014;2023-06-14T12:47:29;24.90;74.80
56162;DHT22;42045;52.986;6.014;2023-06-14T12:49:55;24.90;75.00
56162;DHT22;42045;52.986;6.014;2023-06-14T12:52:21;24.90;74.50
56162;DHT22;42045;52.986;6.014;2023-06-14T12:54:46;25.00;75.00
56162;DHT22;42045;52.986;6.014;2023-06-14T12:57:12;25.00;75.00
56162;DHT22;42045;52.986;6.014;2023-06-14T12:59:38;25.20;76.70
56162;DHT22;42045;52.986;6.014;2023-06-14T13:02:30;25.40;76.60
56162;DHT22;42045;52.986;6.014;2023-06-14T13:04:55;25.30;75.40
56162;DHT22;42045;52.986;6.014;2023-06-14T13:07:24;25.30;75.70
56162;DHT22;42045;52.986;6.014;2023-06-14T13:09:50;25.30;76.20
56162;DHT22;42045;52.986;6.014;2023-06-14T13:12:16;25.30;74.80
56162;DHT22;42045;52.986;6.014;2023-06-14T13:14:42;25.00;74.00
56162;DHT22;42045;52.986;6.014;2023-06-14T13:17:11;24.80;73.70
56162;DHT22;42045;52.986;6.014;2023-06-14T13:19:37;24.90;75.00
56162;DHT22;42045;52.986;6.014;2023-06-14T13:22:02;24.90;75.20
56162;DHT22;42045;52.986;6.014;2023-06-14T13:24:29;25.00;75.00
56162;DHT22;42045;52.986;6.014;2023-06-14T13:26:55;25.10;75.20
56162;DHT22;42045;52.986;6.014;2023-06-14T13:29:23;25.10;73.60
56162;DHT22;42045;52.986;6.014;2023-06-14T13:31:48;25.00;73.60
56162;DHT22;42045;52.986;6.014;2023-06-14T13:34:14;24.90;74.20
56162;DHT22;42045;52.986;6.014;2023-06-14T13:36:40;24.80;73.90
56162;DHT22;42045;52.986;6.014;2023-06-14T13:39:06;24.70;74.60
56162;DHT22;42045;52.986;6.014;2023-06-14T13:41:31;24.80;75.60
56162;DHT22;42045;52.986;6.014;2023-06-14T13:44:00;25.00;75.00
56162;DHT22;42045;52.986;6.014;2023-06-14T13:46:26;25.10;75.50
56162;DHT22;42045;52.986;6.014;2023-06-14T13:48:52;25.10;74.00
56162;DHT22;42045;52.986;6.014;2023-06-14T13:51:18;25.20;74.50
56162;DHT22;42045;52.986;6.014;2023-06-14T13:53:50;25.10;73.60
56162;DHT22;42045;52.986;6.014;2023-06-14T13:56:17;25.10;73.50
56162;DHT22;42045;52.986;6.014;2023-06-14T13:58:43;25.00;73.40
56162;DHT22;42045;52.986;6.014;2023-06-14T14:01:09;24.90;74.20
56162;DHT22;42045;52.986;6.014;2023-06-14T14:03:35;24.90;74.50
56162;DHT22;42045;52.986;6.014;2023-06-14T14:06:01;24.90;73.90
56162;DHT22;42045;52.986;6.014;2023-06-14T14:08:27;25.00;74.60
56162;DHT22;42045;52.986;6.014;2023-06-14T14:10:53;25.10;74.60
56162;DHT22;42045;52.986;6.014;2023-06-14T14:13:19;25.20;73.80
56162;DHT22;42045;52.986;6.014;2023-06-14T14:15:46;25.30;73.60
56162;DHT22;42045;52.986;6.014;2023-06-14T14:18:12;25.30;74.10
56162;DHT22;42045;52.986;6.014;2023-06-14T14:20:38;25.20;75.10
56162;DHT22;42045;52.986;6.014;2023-06-14T14:23:03;25.20;74.90
56162;DHT22;42045;52.986;6.014;2023-06-14T14:25:30;25.10;75.10
56162;DHT22;42045;52.986;6.014;2023-06-14T14:27:55;25.10;72.80
56162;DHT22;42045;52.986;6.014;2023-06-14T14:30:21;25.20;73.60
56162;DHT22;42045;52.986;6.014;2023-06-14T14:32:49;25.20;72.60
56162;DHT22;42045;52.986;6.014;2023-06-14T14:35:17;25.30;73.80
56162;DHT22;42045;52.986;6.014;2023-06-14T14:37:43;25.40;73.30
56162;DHT22;42045;52.986;6.014;2023-06-14T14:40:09;25.30;72.20
56162;DHT22;42045;52.986;6.014;2023-06-14T14:42:36;25.30;72.10
56162;DHT22;42045;52.986;6.014;2023-06-14T14:45:02;25.40;72.90
56162;DHT22;42045;52.986;6.014;2023-06-14T14:47:28;25.50;72.70
56162;DHT22;42045;52.986;6.014;2023-06-14T14:49:54;25.60;72.50
56162;DHT22;42045;52.986;6.014;2023-06-14T14:52:20;25.80;72.60
56162;DHT22;42045;52.986;6.014;2023-06-14T14:54:46;25.80;73.40
56162;DHT22;42045;52.986;6.014;2023-06-14T14:57:11;25.80;72.90
56162;DHT22;42045;52.986;6.014;2023-06-14T14:59:37;25.80;71.60
56162;DHT22;42045;52.986;6.014;2023-06-14T15:02:02;25.70;71.80
56162;DHT22;42045;52.986;6.014;2023-06-14T15:04:28;25.50;72.50
56162;DHT22;42045;52.986;6.014;2023-06-14T15:06:54;25.40;73.50
56162;DHT22;42045;52.986;6.014;2023-06-14T15:09:20;25.40;72.90
56162;DHT22;42045;52.986;6.014;2023-06-14T15:11:45;25.50;74.10
56162;DHT22;42045;52.986;6.014;2023-06-14T15:14:11;25.50;74.30
56162;DHT22;42045;52.986;6.014;2023-06-14T15:16:37;25.60;73.70
56162;DHT22;42045;52.986;6.014;2023-06-14T15:19:03;25.50;73.80
56162;DHT22;42045;52.986;6.014;2023-06-14T15:21:28;25.40;73.50
56162;DHT22;42045;52.986;6.014;2023-06-14T15:23:54;25.40;73.90
56162;DHT22;42045;52.986;6.014;2023-06-14T15:26:20;25.40;74.50
56162;DHT22;42045;52.986;6.014;2023-06-14T15:28:46;25.30;74.10
56162;DHT22;42045;52.986;6.014;2023-06-14T15:31:11;25.20;73.70
56162;DHT22;42045;52.986;6.014;2023-06-14T15:33:37;25.00;74.00
56162;DHT22;42045;52.986;6.014;2023-06-14T15:36:03;25.00;75.50
56162;DHT22;42045;52.986;6.014;2023-06-14T15:38:29;25.10;76.40
56162;DHT22;42045;52.986;6.014;2023-06-14T15:40:55;25.20;75.30
56162;DHT22;42045;52.986;6.014;2023-06-14T15:43:21;25.20;75.70
56162;DHT22;42045;52.986;6.014;2023-06-14T15:45:48;25.10;74.60
56162;DHT22;42045;52.986;6.014;2023-06-14T15:48:14;25.10;74.10
56162;DHT22;42045;52.986;6.014;2023-06-14T15:50:39;25.00;73.80
56162;DHT22;42045;52.986;6.014;2023-06-14T15:53:05;25.00;74.40
56162;DHT22;42045;52.986;6.014;2023-06-14T15:55:31;25.00;74.90